Time;durP1;ratioP1;P1;durP2;ratioP2;P2;SDS_P1;SDS_P2;PMS_P1;PMS_P2;Temp;Humidity;BMP_temperature;BMP_pressure;BME280_temperature;BME280_humidity;BME280_pressure;Samples;Min_cycle;Max_cycle;Signal;HPM_P1;HPM_P2
2021/09/27 00:02:16;;;;;;;16.23;10.80;;;16.40;99.90;;;;;;6724428;88;20325;-79
2021/09/27 00:12:17;;;;;;;18.08;11.00;;;16.40;99.90;;;;;;6733344;88;20203;-80
2021/09/27 00:22:17;;;;;;;18.37;11.12;;;16.20;99.90;;;;;;6743606;88;20729;-79
2021/09/27 00:32:18;;;;;;;18.15;11.32;;;16.20;99.90;;;;;;6743270;88;20219;-79
2021/09/27 00:42:18;;;;;;;18.45;11.27;;;16.00;99.90;;;;;;6739133;88;20192;-79
2021/09/27 00:52:19;;;;;;;19.17;10.93;;;16.10;99.90;;;;;;6738363;77;20265;-76
2021/09/27 01:02:20;;;;;;;18.33;11.30;;;16.10;99.90;;;;;;6752059;87;20272;-76
2021/09/27 01:12:30;;;;;;;16.87;10.93;;;16.00;99.90;;;;;;6743002;87;20639;-78
2021/09/27 01:22:48;;;;;;;17.05;10.98;;;15.80;99.90;;;;;;6743837;87;20300;-79
2021/09/27 01:32:56;;;;;;;17.67;11.27;;;15.90;99.90;;;;;;6745898;87;20682;-76
2021/09/27 01:43:15;;;;;;;15.70;10.55;;;16.00;99.90;;;;;;6746989;87;20200;-78
2021/09/27 01:54:01;;;;;;;15.95;10.35;;;16.10;99.90;;;;;;6746493;87;20238;-76
2021/09/27 02:04:07;;;;;;;14.83;9.97;;;15.70;99.90;;;;;;6742376;87;20199;-76
2021/09/27 02:14:23;;;;;;;23.12;10.85;;;15.40;99.90;;;;;;6742178;87;20791;-76
2021/09/27 02:24:38;;;;;;;17.60;10.73;;;15.30;99.90;;;;;;6744609;87;20180;-77
2021/09/27 02:34:59;;;;;;;16.13;10.33;;;15.50;99.90;;;;;;6743847;87;20279;-76
2021/09/27 02:45:00;;;;;;;20.17;11.02;;;15.60;99.90;;;;;;6744340;87;20532;-76
2021/09/27 02:55:11;;;;;;;17.98;10.63;;;15.70;99.90;;;;;;6745445;87;20316;-78
2021/09/27 03:05:43;;;;;;;22.02;10.70;;;15.80;99.90;;;;;;6748317;87;20241;-76
2021/09/27 03:16:01;;;;;;;17.08;11.02;;;15.80;99.90;;;;;;6748673;87;20667;-77
2021/09/27 03:26:22;;;;;;;19.55;10.73;;;15.90;99.90;;;;;;6749386;87;20248;-77
2021/09/27 03:36:33;;;;;;;15.25;10.27;;;16.00;99.90;;;;;;6749882;87;20262;-76
2021/09/27 03:46:55;;;;;;;18.50;10.90;;;15.90;99.90;;;;;;6748354;87;20227;-78
2021/09/27 03:57:06;;;;;;;18.25;10.73;;;15.90;99.90;;;;;;6748967;87;20376;-76
2021/09/27 04:07:29;;;;;;;18.08;11.05;;;15.80;99.90;;;;;;6748100;87;20972;-78
2021/09/27 04:18:03;;;;;;;17.73;10.82;;;15.70;99.90;;;;;;6747065;87;20203;-78
2021/09/27 04:28:42;;;;;;;16.65;10.88;;;15.70;99.90;;;;;;6749321;87;20262;-79
2021/09/27 04:38:44;;;;;;;14.60;10.10;;;15.70;99.90;;;;;;6748282;87;20225;-78
2021/09/27 04:49:14;;;;;;;17.42;10.13;;;15.60;99.90;;;;;;6751601;87;20181;-78
2021/09/27 04:59:45;;;;;;;15.88;9.52;;;15.50;99.90;;;;;;6753906;87;20209;-78
2021/09/27 05:10:13;;;;;;;16.20;10.20;;;15.50;99.90;;;;;;6750096;87;20285;-77
2021/09/27 05:20:22;;;;;;;15.88;10.63;;;15.40;99.90;;;;;;6758449;87;20180;-77
2021/09/27 05:30:53;;;;;;;22.20;10.57;;;15.50;99.90;;;;;;6750204;87;20290;-76
2021/09/27 05:41:19;;;;;;;15.57;9.63;;;15.50;99.90;;;;;;6750941;87;20213;-78
2021/09/27 05:51:47;;;;;;;17.10;9.95;;;15.60;99.90;;;;;;6750598;88;20220;-78
2021/09/27 06:01:55;;;;;;;15.40;10.15;;;15.60;99.90;;;;;;6749814;87;20181;-77
2021/09/27 06:11:59;;;;;;;13.85;8.60;;;15.70;99.90;;;;;;6755803;87;20639;-79
2021/09/27 06:22:25;;;;;;;15.50;9.43;;;15.80;99.90;;;;;;6752159;88;20247;-77
2021/09/27 06:32:53;;;;;;;12.35;8.70;;;15.90;99.90;;;;;;6772657;87;20216;-78
2021/09/27 06:42:54;;;;;;;14.65;8.15;;;16.10;99.90;;;;;;6764256;87;20203;-77
2021/09/27 07:02:58;;;;;;;14.00;7.70;;;16.20;99.90;;;;;;6733084;88;20704;-79
2021/09/27 07:12:59;;;;;;;10.82;7.15;;;16.40;99.90;;;;;;6724183;88;20180;-80
2021/09/27 07:22:59;;;;;;;13.00;7.20;;;16.40;99.90;;;;;;6724118;88;20230;-79
2021/09/27 07:33:00;;;;;;;11.27;6.97;;;16.80;99.90;;;;;;6722390;88;20196;-80
2021/09/27 07:43:01;;;;;;;10.82;6.32;;;17.10;99.90;;;;;;6720387;88;20190;-78
2021/09/27 07:53:02;;;;;;;11.70;7.28;;;17.00;99.90;;;;;;6722947;88;20224;-80
2021/09/27 08:03:03;;;;;;;10.07;6.45;;;17.00;99.90;;;;;;6727940;88;20275;-79
2021/09/27 08:13:05;;;;;;;11.35;5.95;;;17.40;99.90;;;;;;6689798;88;20971;-81
2021/09/27 08:23:06;;;;;;;9.05;5.75;;;18.50;99.90;;;;;;6693008;88;20230;-81
2021/09/27 08:33:07;;;;;;;9.48;5.10;;;18.70;99.90;;;;;;6723126;88;20213;-79
2021/09/27 08:43:26;;;;;;;6.90;5.00;;;18.60;99.90;;;;;;6721923;88;20232;-79
2021/09/27 08:53:37;;;;;;;8.40;4.70;;;19.20;99.90;;;;;;6721513;88;20264;-80
2021/09/27 09:03:49;;;;;;;7.15;4.40;;;19.10;99.90;;;;;;6724829;88;20263;-79
2021/09/27 09:14:07;;;;;;;10.60;4.32;;;19.30;99.90;;;;;;6719880;88;20219;-80
2021/09/27 09:24:18;;;;;;;6.20;4.15;;;19.30;99.90;;;;;;6724876;88;20863;-82
2021/09/27 09:34:21;;;;;;;7.97;3.53;;;19.80;99.90;;;;;;6723873;88;20663;-78
2021/09/27 09:44:33;;;;;;;6.03;3.47;;;20.40;99.90;;;;;;6725959;88;20236;-78
2021/09/27 09:54:38;;;;;;;5.65;3.20;;;21.50;99.90;;;;;;6709254;88;20239;-79
2021/09/27 10:04:42;;;;;;;5.80;3.05;;;21.20;99.90;;;;;;6723601;88;20201;-79
2021/09/27 10:14:45;;;;;;;4.03;1.93;;;21.30;99.90;;;;;;6719460;88;20193;-79
2021/09/27 10:24:49;;;;;;;5.07;1.90;;;21.80;99.90;;;;;;6723010;88;20265;-81
2021/09/27 10:34:51;;;;;;;3.50;1.37;;;21.70;99.90;;;;;;6724313;88;20200;-80
2021/09/27 10:44:54;;;;;;;3.53;1.60;;;21.40;99.90;;;;;;6724024;88;20708;-80
2021/09/27 10:55:00;;;;;;;5.10;1.45;;;21.50;99.90;;;;;;6720794;88;20710;-80
2021/09/27 11:05:30;;;;;;;3.15;1.55;;;21.60;99.90;;;;;;6719538;88;20213;-78
2021/09/27 11:15:39;;;;;;;1.90;1.35;;;21.50;99.90;;;;;;6721614;88;20193;-79
2021/09/27 11:25:40;;;;;;;2.40;1.60;;;21.80;99.90;;;;;;6723939;88;20216;-79
2021/09/27 11:35:45;;;;;;;2.87;1.30;;;22.00;99.90;;;;;;6722226;88;20699;-78
2021/09/27 11:46:15;;;;;;;5.70;1.70;;;21.70;99.90;;;;;;6725510;88;20185;-78
2021/09/27 11:56:23;;;;;;;3.40;1.90;;;21.70;99.90;;;;;;6723761;88;20687;-78
2021/09/27 12:06:31;;;;;;;2.60;1.80;;;21.60;99.90;;;;;;6724653;88;20996;-79
2021/09/27 12:16:39;;;;;;;4.22;1.80;;;21.70;99.90;;;;;;6730480;88;20610;-80
2021/09/27 12:26:51;;;;;;;3.00;1.87;;;21.80;99.90;;;;;;6726122;88;20263;-79
2021/09/27 12:36:52;;;;;;;2.35;1.65;;;21.70;99.90;;;;;;6728710;88;20203;-78
2021/09/27 12:46:55;;;;;;;3.83;1.90;;;21.00;99.90;;;;;;6743565;88;20182;-80
2021/09/27 12:57:01;;;;;;;3.90;1.87;;;21.30;99.90;;;;;;6749211;77;20650;-77
2021/09/27 13:07:10;;;;;;;4.60;2.10;;;21.60;99.90;;;;;;6738326;87;20262;-78
2021/09/27 13:17:23;;;;;;;4.60;2.03;;;21.30;99.90;;;;;;6735124;87;20233;-78
2021/09/27 13:27:31;;;;;;;4.12;2.20;;;21.30;99.90;;;;;;6738733;87;20188;-77
2021/09/27 13:37:44;;;;;;;2.70;2.00;;;21.20;99.90;;;;;;6737692;87;20796;-77
2021/09/27 13:47:45;;;;;;;5.45;2.53;;;21.20;99.90;;;;;;6731443;87;20168;-77
2021/09/27 13:57:45;;;;;;;2.92;2.10;;;20.90;99.90;;;;;;6740918;87;20175;-78
2021/09/27 14:07:46;;;;;;;5.05;2.08;;;20.60;99.90;;;;;;6737947;87;20226;-77
2021/09/27 14:17:46;;;;;;;3.35;2.20;;;20.50;99.90;;;;;;6736062;87;20229;-78
2021/09/27 14:27:47;;;;;;;4.22;2.10;;;20.50;99.90;;;;;;6733855;87;20187;-78
2021/09/27 14:37:48;;;;;;;3.90;2.40;;;20.60;99.90;;;;;;6735885;87;20205;-78
2021/09/27 14:47:50;;;;;;;4.53;2.78;;;20.20;99.90;;;;;;6737721;87;20218;-78
2021/09/27 14:57:51;;;;;;;6.32;2.70;;;19.60;99.90;;;;;;6750121;87;20778;-78
2021/09/27 15:07:53;;;;;;;7.10;2.87;;;19.30;99.90;;;;;;6752913;87;20190;-78
2021/09/27 15:17:54;;;;;;;3.97;2.80;;;19.20;99.90;;;;;;6748934;88;20210;-80
2021/09/27 15:27:55;;;;;;;7.22;3.22;;;19.10;99.90;;;;;;6750536;88;20599;-79
2021/09/27 15:37:55;;;;;;;4.57;2.97;;;19.20;99.90;;;;;;6753754;88;20267;-79
2021/09/27 15:47:56;;;;;;;7.22;3.00;;;19.20;99.90;;;;;;6753046;87;20631;-78
2021/09/27 15:57:56;;;;;;;6.43;2.87;;;19.00;99.90;;;;;;6750891;88;20770;-78
2021/09/27 16:07:57;;;;;;;5.73;2.77;;;19.00;99.90;;;;;;6740643;88;20193;-78
2021/09/27 16:17:59;;;;;;;6.12;2.80;;;18.90;99.90;;;;;;6751392;88;20208;-80
2021/09/27 16:28:02;;;;;;;7.37;3.10;;;18.80;99.90;;;;;;6748128;88;20287;-78
2021/09/27 16:38:03;;;;;;;4.97;3.10;;;18.70;99.90;;;;;;6745322;88;20678;-76
2021/09/27 16:48:04;;;;;;;9.55;3.62;;;18.60;99.90;;;;;;6742384;88;20206;-76
2021/09/27 16:58:05;;;;;;;5.12;2.97;;;18.50;99.90;;;;;;6739729;88;20746;-77
2021/09/27 17:08:06;;;;;;;3.12;0.90;;;18.40;99.90;;;;;;6750436;88;20210;-77
2021/09/27 17:18:06;;;;;;;4.28;0.98;;;15.50;99.90;;;;;;6747995;88;20220;-78
2021/09/27 17:28:11;;;;;;;2.85;0.80;;;14.50;99.90;;;;;;6745844;88;20205;-77
2021/09/27 17:38:12;;;;;;;7.20;0.90;;;14.30;99.90;;;;;;6739912;87;20216;-78
2021/09/27 17:48:13;;;;;;;4.70;1.00;;;14.30;99.90;;;;;;6740400;88;20197;-78
2021/09/27 17:58:15;;;;;;;3.35;0.90;;;14.20;99.90;;;;;;6744286;87;20225;-78
2021/09/27 18:08:16;;;;;;;2.50;0.90;;;14.20;99.90;;;;;;6743094;88;20705;-77
2021/09/27 18:18:16;;;;;;;4.95;0.82;;;14.00;99.90;;;;;;6745161;88;20256;-77
2021/09/27 18:28:17;;;;;;;4.72;0.85;;;14.10;99.90;;;;;;6745578;88;20219;-77
2021/09/27 18:38:19;;;;;;;3.47;1.02;;;14.00;99.90;;;;;;6745253;88;20188;-79
2021/09/27 18:48:20;;;;;;;9.05;1.00;;;14.20;99.90;;;;;;6743651;88;20242;-78
2021/09/27 18:58:20;;;;;;;3.55;1.00;;;14.20;99.90;;;;;;6748411;88;20745;-77
2021/09/27 19:08:21;;;;;;;3.33;1.00;;;14.10;99.90;;;;;;6734664;88;20184;-78
2021/09/27 19:18:23;;;;;;;4.22;0.98;;;14.00;99.90;;;;;;6730388;88;20266;-77
2021/09/27 19:28:27;;;;;;;3.40;1.10;;;14.10;99.90;;;;;;6730472;87;20347;-78
2021/09/27 19:38:28;;;;;;;5.00;0.95;;;14.00;99.90;;;;;;6739088;88;20237;-78
2021/09/27 19:48:29;;;;;;;3.70;1.07;;;14.30;99.90;;;;;;6738759;76;20161;-80
2021/09/27 19:58:30;;;;;;;4.07;0.93;;;14.40;99.90;;;;;;6730794;88;21203;-77
2021/09/27 20:08:31;;;;;;;3.53;0.93;;;14.20;99.90;;;;;;6734380;88;20380;-77
2021/09/27 20:18:36;;;;;;;3.70;1.30;;;14.20;99.90;;;;;;6738486;88;20207;-79
2021/09/27 20:28:37;;;;;;;4.55;1.10;;;14.20;99.90;;;;;;6745201;88;20189;-79
2021/09/27 20:38:38;;;;;;;3.87;1.10;;;14.00;99.90;;;;;;6742758;88;20285;-79
2021/09/27 20:48:41;;;;;;;5.43;1.40;;;14.10;99.90;;;;;;6737506;88;20200;-79
2021/09/27 20:58:42;;;;;;;7.10;1.55;;;13.90;99.90;;;;;;6737787;88;20190;-77
2021/09/27 21:08:43;;;;;;;5.93;1.90;;;13.80;99.90;;;;;;6734760;88;20226;-77
2021/09/27 21:18:44;;;;;;;4.20;1.43;;;13.90;99.90;;;;;;6736484;88;20181;-77
2021/09/27 21:28:44;;;;;;;9.43;1.62;;;13.70;99.90;;;;;;6735302;88;20495;-77
2021/09/27 21:38:45;;;;;;;5.55;1.45;;;13.40;99.90;;;;;;6731798;88;20620;-77
2021/09/27 21:48:47;;;;;;;5.83;1.30;;;13.50;99.90;;;;;;6738923;88;20654;-78
2021/09/27 21:58:47;;;;;;;6.70;1.50;;;13.20;99.90;;;;;;6736106;88;20192;-78
2021/09/27 22:08:48;;;;;;;4.60;1.60;;;13.20;99.90;;;;;;6726037;88;20664;-78
2021/09/27 22:18:48;;;;;;;4.18;1.37;;;13.10;99.90;;;;;;6735140;88;20223;-78
2021/09/27 22:28:49;;;;;;;8.85;1.90;;;13.10;99.90;;;;;;6732140;88;20242;-78
2021/09/27 22:38:49;;;;;;;6.65;1.60;;;13.30;99.90;;;;;;6735613;88;20206;-77
2021/09/27 22:48:50;;;;;;;8.15;1.80;;;13.10;99.90;;;;;;6731639;88;20192;-77
2021/09/27 22:58:50;;;;;;;10.82;2.05;;;13.10;99.90;;;;;;6737628;88;20636;-78
2021/09/27 23:08:51;;;;;;;8.75;1.80;;;13.10;99.90;;;;;;6734875;88;20231;-78
2021/09/27 23:18:52;;;;;;;7.93;1.70;;;13.10;99.90;;;;;;6724816;88;20639;-80
2021/09/27 23:28:52;;;;;;;7.72;1.60;;;13.00;99.90;;;;;;6749394;88;20362;-78
2021/09/27 23:38:53;;;;;;;8.32;1.98;;;13.00;99.90;;;;;;6738975;88;20205;-77
2021/09/27 23:48:53;;;;;;;11.40;1.90;;;13.00;99.90;;;;;;6740939;88;20318;-77
2021/09/27 23:58:54;;;;;;;7.97;1.80;;;13.10;99.90;;;;;;6749295;88;20169;-77
